Waterloo, Wisconsin
Current Conditions -  °F | °C
As of 5:35 PM on Thursday 18 Dec 2014 (Local Time) from KRYV Reporting Station
Overcast Overcast  
Wind Chill: 21°   Ceiling: 1000
Heat Index: 26°   Visibility: 10mi
Dew Point: 24°   Wind: 5mph
Humidity: 92%   Direction: 350°N
Pressure: 30.24"   Gusts: NA
Location:  43.18°N, 88.99°W
Report Text: KRYV 182335Z AUTO 35004KT 10SM OVC010 M03/M04 A3024 RMK AO2 T10311042
Loading
Personal Weather Stations






























Interactive Weather Map New forecast layout! Learn more

10-Day Weather Forecast

Advertisements
Track Severe Weather on mobile